sensor_id;sensor_type;location;lat;lon;timestamp;temperature;humidity
22968;DHT22;11650;48.106;-1.696;2024-03-22T00:00:55;11.00;99.90
22968;DHT22;11650;48.106;-1.696;2024-03-22T00:03:22;11.00;99.90
22968;DHT22;11650;48.106;-1.696;2024-03-22T00:05:47;10.90;99.90
22968;DHT22;11650;48.106;-1.696;2024-03-22T00:08:13;10.90;99.90
22968;DHT22;11650;48.106;-1.696;2024-03-22T00:10:38;10.80;99.90
22968;DHT22;11650;48.106;-1.696;2024-03-22T00:13:04;10.80;99.90
22968;DHT22;11650;48.106;-1.696;2024-03-22T00:15:30;10.70;99.90
22968;DHT22;11650;48.106;-1.696;2024-03-22T00:17:55;10.70;99.90
22968;DHT22;11650;48.106;-1.696;2024-03-22T00:20:21;10.60;99.90
22968;DHT22;11650;48.106;-1.696;2024-03-22T00:22:46;10.60;99.90
22968;DHT22;11650;48.106;-1.696;2024-03-22T00:25:12;10.60;99.90
22968;DHT22;11650;48.106;-1.696;2024-03-22T00:27:38;10.70;99.90
22968;DHT22;11650;48.106;-1.696;2024-03-22T00:30:04;10.80;99.90
22968;DHT22;11650;48.106;-1.696;2024-03-22T00:32:30;10.90;99.90
22968;DHT22;11650;48.106;-1.696;2024-03-22T00:34:55;11.00;99.90
22968;DHT22;11650;48.106;-1.696;2024-03-22T00:37:21;10.80;99.90
22968;DHT22;11650;48.106;-1.696;2024-03-22T00:39:47;10.90;99.90
22968;DHT22;11650;48.106;-1.696;2024-03-22T00:42:12;11.00;99.90
22968;DHT22;11650;48.106;-1.696;2024-03-22T00:44:38;11.00;99.90
22968;DHT22;11650;48.106;-1.696;2024-03-22T00:47:04;11.10;99.90
22968;DHT22;11650;48.106;-1.696;2024-03-22T00:49:31;11.00;99.90
22968;DHT22;11650;48.106;-1.696;2024-03-22T00:51:56;11.00;99.90
22968;DHT22;11650;48.106;-1.696;2024-03-22T00:54:23;11.10;99.90
22968;DHT22;11650;48.106;-1.696;2024-03-22T00:56:49;11.20;99.90
22968;DHT22;11650;48.106;-1.696;2024-03-22T00:59:14;11.00;99.90
22968;DHT22;11650;48.106;-1.696;2024-03-22T01:01:40;11.10;99.90
22968;DHT22;11650;48.106;-1.696;2024-03-22T01:04:06;11.10;99.90
22968;DHT22;11650;48.106;-1.696;2024-03-22T01:06:34;11.10;99.90
22968;DHT22;11650;48.106;-1.696;2024-03-22T01:09:00;11.10;99.90
22968;DHT22;11650;48.106;-1.696;2024-03-22T01:11:26;11.10;99.90
22968;DHT22;11650;48.106;-1.696;2024-03-22T01:13:51;11.10;99.90
22968;DHT22;11650;48.106;-1.696;2024-03-22T01:16:17;11.10;99.90
22968;DHT22;11650;48.106;-1.696;2024-03-22T01:18:42;11.10;99.90
22968;DHT22;11650;48.106;-1.696;2024-03-22T01:21:08;11.20;99.90
22968;DHT22;11650;48.106;-1.696;2024-03-22T01:23:33;11.10;99.90
22968;DHT22;11650;48.106;-1.696;2024-03-22T01:25:59;11.10;99.90
22968;DHT22;11650;48.106;-1.696;2024-03-22T01:28:25;11.00;99.90
22968;DHT22;11650;48.106;-1.696;2024-03-22T01:30:50;10.90;99.90
22968;DHT22;11650;48.106;-1.696;2024-03-22T01:33:16;10.90;99.90
22968;DHT22;11650;48.106;-1.696;2024-03-22T01:35:41;10.80;99.90
22968;DHT22;11650;48.106;-1.696;2024-03-22T01:38:07;10.90;99.90
22968;DHT22;11650;48.106;-1.696;2024-03-22T01:40:33;10.70;99.90
22968;DHT22;11650;48.106;-1.696;2024-03-22T01:43:00;10.70;99.90
22968;DHT22;11650;48.106;-1.696;2024-03-22T01:45:25;10.60;99.90
22968;DHT22;11650;48.106;-1.696;2024-03-22T01:47:52;10.60;99.90
22968;DHT22;11650;48.106;-1.696;2024-03-22T01:50:22;10.70;99.90
22968;DHT22;11650;48.106;-1.696;2024-03-22T01:52:47;10.70;99.90
22968;DHT22;11650;48.106;-1.696;2024-03-22T01:55:14;10.70;99.90
22968;DHT22;11650;48.106;-1.696;2024-03-22T01:57:40;10.70;99.90
22968;DHT22;11650;48.106;-1.696;2024-03-22T02:00:06;10.70;99.90
22968;DHT22;11650;48.106;-1.696;2024-03-22T02:02:34;10.70;99.90
22968;DHT22;11650;48.106;-1.696;2024-03-22T02:05:11;10.70;99.90
22968;DHT22;11650;48.106;-1.696;2024-03-22T02:07:36;10.70;99.90
22968;DHT22;11650;48.106;-1.696;2024-03-22T02:10:02;10.70;99.90
22968;DHT22;11650;48.106;-1.696;2024-03-22T02:12:28;10.70;99.90
22968;DHT22;11650;48.106;-1.696;2024-03-22T02:14:53;10.80;99.90
22968;DHT22;11650;48.106;-1.696;2024-03-22T02:17:23;10.80;99.90
22968;DHT22;11650;48.106;-1.696;2024-03-22T02:19:49;10.90;99.90
22968;DHT22;11650;48.106;-1.696;2024-03-22T02:22:14;10.90;99.90
22968;DHT22;11650;48.106;-1.696;2024-03-22T02:24:40;10.90;99.90
22968;DHT22;11650;48.106;-1.696;2024-03-22T02:27:05;11.00;99.90
22968;DHT22;11650;48.106;-1.696;2024-03-22T02:29:31;11.00;99.90
22968;DHT22;11650;48.106;-1.696;2024-03-22T02:31:57;10.90;99.90
22968;DHT22;11650;48.106;-1.696;2024-03-22T02:34:23;10.90;99.90
22968;DHT22;11650;48.106;-1.696;2024-03-22T02:36:49;10.80;99.90
22968;DHT22;11650;48.106;-1.696;2024-03-22T02:39:15;10.80;99.90
22968;DHT22;11650;48.106;-1.696;2024-03-22T02:41:40;10.80;99.90
22968;DHT22;11650;48.106;-1.696;2024-03-22T02:44:06;10.80;99.90
22968;DHT22;11650;48.106;-1.696;2024-03-22T02:46:31;10.80;99.90
22968;DHT22;11650;48.106;-1.696;2024-03-22T02:48:57;10.80;99.90
22968;DHT22;11650;48.106;-1.696;2024-03-22T02:51:23;10.70;99.90
22968;DHT22;11650;48.106;-1.696;2024-03-22T02:53:49;10.80;99.90
22968;DHT22;11650;48.106;-1.696;2024-03-22T02:56:15;10.80;99.90
22968;DHT22;11650;48.106;-1.696;2024-03-22T02:58:40;10.80;99.90
22968;DHT22;11650;48.106;-1.696;2024-03-22T03:01:06;10.70;99.90
22968;DHT22;11650;48.106;-1.696;2024-03-22T03:03:32;10.70;99.90
22968;DHT22;11650;48.106;-1.696;2024-03-22T03:05:57;10.70;99.90
22968;DHT22;11650;48.106;-1.696;2024-03-22T03:08:23;10.70;99.90
22968;DHT22;11650;48.106;-1.696;2024-03-22T03:10:48;10.60;99.90
22968;DHT22;11650;48.106;-1.696;2024-03-22T03:13:14;10.60;99.90
22968;DHT22;11650;48.106;-1.696;2024-03-22T03:15:40;10.50;99.90
22968;DHT22;11650;48.106;-1.696;2024-03-22T03:18:05;10.50;99.90
22968;DHT22;11650;48.106;-1.696;2024-03-22T03:20:31;10.60;99.90
22968;DHT22;11650;48.106;-1.696;2024-03-22T03:22:57;10.50;99.90
22968;DHT22;11650;48.106;-1.696;2024-03-22T03:25:25;10.50;99.90
22968;DHT22;11650;48.106;-1.696;2024-03-22T03:27:51;10.60;99.90
22968;DHT22;11650;48.106;-1.696;2024-03-22T03:30:17;10.60;99.90
22968;DHT22;11650;48.106;-1.696;2024-03-22T03:32:42;10.50;99.90
22968;DHT22;11650;48.106;-1.696;2024-03-22T03:35:08;10.40;99.90
22968;DHT22;11650;48.106;-1.696;2024-03-22T03:37:34;10.50;99.90
22968;DHT22;11650;48.106;-1.696;2024-03-22T03:39:59;10.40;99.90
22968;DHT22;11650;48.106;-1.696;2024-03-22T03:42:25;10.20;99.90
22968;DHT22;11650;48.106;-1.696;2024-03-22T03:44:51;10.30;99.90
22968;DHT22;11650;48.106;-1.696;2024-03-22T03:47:16;10.30;99.90
22968;DHT22;11650;48.106;-1.696;2024-03-22T03:49:42;10.20;99.90
22968;DHT22;11650;48.106;-1.696;2024-03-22T03:52:08;10.30;99.90
22968;DHT22;11650;48.106;-1.696;2024-03-22T03:54:33;10.30;99.90
22968;DHT22;11650;48.106;-1.696;2024-03-22T03:56:59;10.40;99.90
22968;DHT22;11650;48.106;-1.696;2024-03-22T03:59:24;10.50;99.90
22968;DHT22;11650;48.106;-1.696;2024-03-22T04:01:50;10.30;99.90
22968;DHT22;11650;48.106;-1.696;2024-03-22T04:04:16;10.40;99.90
22968;DHT22;11650;48.106;-1.696;2024-03-22T04:06:43;10.50;99.90
22968;DHT22;11650;48.106;-1.696;2024-03-22T04:09:09;10.40;99.90
22968;DHT22;11650;48.106;-1.696;2024-03-22T04:11:35;10.20;99.90
22968;DHT22;11650;48.106;-1.696;2024-03-22T04:14:01;10.20;99.90
22968;DHT22;11650;48.106;-1.696;2024-03-22T04:16:26;10.10;99.90
22968;DHT22;11650;48.106;-1.696;2024-03-22T04:18:53;10.10;99.90
22968;DHT22;11650;48.106;-1.696;2024-03-22T04:21:18;9.90;99.90
22968;DHT22;11650;48.106;-1.696;2024-03-22T04:23:44;9.90;99.90
22968;DHT22;11650;48.106;-1.696;2024-03-22T04:26:10;10.10;99.90
22968;DHT22;11650;48.106;-1.696;2024-03-22T04:28:36;10.00;99.90
22968;DHT22;11650;48.106;-1.696;2024-03-22T04:31:06;9.90;99.90
22968;DHT22;11650;48.106;-1.696;2024-03-22T04:33:33;10.00;99.90
22968;DHT22;11650;48.106;-1.696;2024-03-22T04:36:00;10.10;99.90
22968;DHT22;11650;48.106;-1.696;2024-03-22T04:38:29;9.90;99.90
22968;DHT22;11650;48.106;-1.696;2024-03-22T04:40:55;10.00;99.90
22968;DHT22;11650;48.106;-1.696;2024-03-22T04:43:22;10.00;99.90
22968;DHT22;11650;48.106;-1.696;2024-03-22T04:45:48;10.00;99.90
22968;DHT22;11650;48.106;-1.696;2024-03-22T04:48:16;10.10;99.90
22968;DHT22;11650;48.106;-1.696;2024-03-22T04:50:42;10.00;99.90
22968;DHT22;11650;48.106;-1.696;2024-03-22T04:53:08;10.10;99.90
22968;DHT22;11650;48.106;-1.696;2024-03-22T04:55:34;10.20;99.90
22968;DHT22;11650;48.106;-1.696;2024-03-22T04:57:59;10.20;99.90
22968;DHT22;11650;48.106;-1.696;2024-03-22T05:00:26;10.20;99.90
22968;DHT22;11650;48.106;-1.696;2024-03-22T05:02:52;10.30;99.90
22968;DHT22;11650;48.106;-1.696;2024-03-22T05:05:18;10.30;99.90
22968;DHT22;11650;48.106;-1.696;2024-03-22T05:07:44;10.30;99.90
22968;DHT22;11650;48.106;-1.696;2024-03-22T05:10:09;10.20;99.90
22968;DHT22;11650;48.106;-1.696;2024-03-22T05:12:36;10.30;99.90
22968;DHT22;11650;48.106;-1.696;2024-03-22T05:15:05;10.40;99.90
22968;DHT22;11650;48.106;-1.696;2024-03-22T05:17:31;10.20;99.90
22968;DHT22;11650;48.106;-1.696;2024-03-22T05:19:58;10.30;99.90
22968;DHT22;11650;48.106;-1.696;2024-03-22T05:22:24;10.40;99.90
22968;DHT22;11650;48.106;-1.696;2024-03-22T05:24:49;10.40;99.90
22968;DHT22;11650;48.106;-1.696;2024-03-22T05:27:15;10.30;99.90
22968;DHT22;11650;48.106;-1.696;2024-03-22T05:29:41;10.20;99.90
22968;DHT22;11650;48.106;-1.696;2024-03-22T05:32:06;10.20;99.90
22968;DHT22;11650;48.106;-1.696;2024-03-22T05:34:32;10.10;99.90
22968;DHT22;11650;48.106;-1.696;2024-03-22T05:36:58;10.10;99.90
22968;DHT22;11650;48.106;-1.696;2024-03-22T05:39:24;10.10;99.90
22968;DHT22;11650;48.106;-1.696;2024-03-22T05:41:50;9.90;99.90
22968;DHT22;11650;48.106;-1.696;2024-03-22T05:44:15;10.00;99.90
22968;DHT22;11650;48.106;-1.696;2024-03-22T05:46:41;10.00;99.90
22968;DHT22;11650;48.106;-1.696;2024-03-22T05:49:06;10.10;99.90
22968;DHT22;11650;48.106;-1.696;2024-03-22T05:51:33;10.20;99.90
22968;DHT22;11650;48.106;-1.696;2024-03-22T05:53:58;10.10;99.90
22968;DHT22;11650;48.106;-1.696;2024-03-22T05:56:24;10.10;99.90
22968;DHT22;11650;48.106;-1.696;2024-03-22T05:58:50;10.00;99.90
22968;DHT22;11650;48.106;-1.696;2024-03-22T06:01:15;10.10;99.90
22968;DHT22;11650;48.106;-1.696;2024-03-22T06:03:41;10.00;99.90
22968;DHT22;11650;48.106;-1.696;2024-03-22T06:06:06;10.00;99.90
22968;DHT22;11650;48.106;-1.696;2024-03-22T06:08:32;10.10;99.90
22968;DHT22;11650;48.106;-1.696;2024-03-22T06:11:00;10.00;99.90
22968;DHT22;11650;48.106;-1.696;2024-03-22T06:13:25;10.00;99.90
22968;DHT22;11650;48.106;-1.696;2024-03-22T06:15:51;10.00;99.90
22968;DHT22;11650;48.106;-1.696;2024-03-22T06:18:17;10.00;99.90
22968;DHT22;11650;48.106;-1.696;2024-03-22T06:20:43;9.90;99.90
22968;DHT22;11650;48.106;-1.696;2024-03-22T06:23:09;10.00;99.90
22968;DHT22;11650;48.106;-1.696;2024-03-22T06:25:34;10.00;99.90
22968;DHT22;11650;48.106;-1.696;2024-03-22T06:28:00;9.90;99.90
22968;DHT22;11650;48.106;-1.696;2024-03-22T06:30:26;9.80;99.90
22968;DHT22;11650;48.106;-1.696;2024-03-22T06:32:55;9.80;99.90
22968;DHT22;11650;48.106;-1.696;2024-03-22T06:35:21;9.80;99.90
22968;DHT22;11650;48.106;-1.696;2024-03-22T06:37:47;9.80;99.90
22968;DHT22;11650;48.106;-1.696;2024-03-22T06:40:14;9.80;99.90
22968;DHT22;11650;48.106;-1.696;2024-03-22T06:42:40;9.90;99.90
22968;DHT22;11650;48.106;-1.696;2024-03-22T06:45:06;9.90;99.90
22968;DHT22;11650;48.106;-1.696;2024-03-22T06:47:32;9.90;99.90
22968;DHT22;11650;48.106;-1.696;2024-03-22T06:49:57;9.80;99.90
22968;DHT22;11650;48.106;-1.696;2024-03-22T06:52:23;9.70;99.90
22968;DHT22;11650;48.106;-1.696;2024-03-22T06:54:49;9.70;99.90
22968;DHT22;11650;48.106;-1.696;2024-03-22T06:57:15;9.80;99.90
22968;DHT22;11650;48.106;-1.696;2024-03-22T06:59:40;9.80;99.90
22968;DHT22;11650;48.106;-1.696;2024-03-22T07:02:06;9.80;99.90
22968;DHT22;11650;48.106;-1.696;2024-03-22T07:04:31;9.90;99.90
22968;DHT22;11650;48.106;-1.696;2024-03-22T07:06:57;10.10;99.90
22968;DHT22;11650;48.106;-1.696;2024-03-22T07:09:23;10.00;99.90
22968;DHT22;11650;48.106;-1.696;2024-03-22T07:11:54;9.90;99.90
22968;DHT22;11650;48.106;-1.696;2024-03-22T07:14:19;9.90;99.90
22968;DHT22;11650;48.106;-1.696;2024-03-22T07:16:45;9.90;99.90
22968;DHT22;11650;48.106;-1.696;2024-03-22T07:19:11;10.00;99.90
22968;DHT22;11650;48.106;-1.696;2024-03-22T07:21:37;10.10;99.90
22968;DHT22;11650;48.106;-1.696;2024-03-22T07:24:04;10.20;99.90
22968;DHT22;11650;48.106;-1.696;2024-03-22T07:26:30;10.20;99.90
22968;DHT22;11650;48.106;-1.696;2024-03-22T07:28:56;10.10;99.90
22968;DHT22;11650;48.106;-1.696;2024-03-22T07:31:21;10.10;99.90
22968;DHT22;11650;48.106;-1.696;2024-03-22T07:33:47;10.10;99.90
22968;DHT22;11650;48.106;-1.696;2024-03-22T07:36:15;10.10;99.90
22968;DHT22;11650;48.106;-1.696;2024-03-22T07:38:42;10.00;99.90
22968;DHT22;11650;48.106;-1.696;2024-03-22T07:41:07;10.00;99.90
22968;DHT22;11650;48.106;-1.696;2024-03-22T07:43:33;9.90;99.90
22968;DHT22;11650;48.106;-1.696;2024-03-22T07:45:58;9.90;99.90
22968;DHT22;11650;48.106;-1.696;2024-03-22T07:48:24;10.00;99.90
22968;DHT22;11650;48.106;-1.696;2024-03-22T07:50:57;10.00;99.90
22968;DHT22;11650;48.106;-1.696;2024-03-22T07:53:23;10.10;99.90
22968;DHT22;11650;48.106;-1.696;2024-03-22T07:55:49;10.10;99.90
22968;DHT22;11650;48.106;-1.696;2024-03-22T07:58:15;10.20;99.90
22968;DHT22;11650;48.106;-1.696;2024-03-22T08:00:40;10.20;99.90
22968;DHT22;11650;48.106;-1.696;2024-03-22T08:03:06;10.30;99.90
22968;DHT22;11650;48.106;-1.696;2024-03-22T08:05:32;10.30;99.90
22968;DHT22;11650;48.106;-1.696;2024-03-22T08:07:57;10.20;99.90
22968;DHT22;11650;48.106;-1.696;2024-03-22T08:10:23;10.20;99.90
22968;DHT22;11650;48.106;-1.696;2024-03-22T08:12:49;10.30;99.90
22968;DHT22;11650;48.106;-1.696;2024-03-22T08:15:15;10.40;99.90
22968;DHT22;11650;48.106;-1.696;2024-03-22T08:17:40;10.40;99.90
22968;DHT22;11650;48.106;-1.696;2024-03-22T08:20:08;10.40;99.90
22968;DHT22;11650;48.106;-1.696;2024-03-22T08:22:33;10.50;99.90
22968;DHT22;11650;48.106;-1.696;2024-03-22T08:24:59;10.60;99.90
22968;DHT22;11650;48.106;-1.696;2024-03-22T08:27:27;10.50;99.90
22968;DHT22;11650;48.106;-1.696;2024-03-22T08:29:53;10.60;99.90
22968;DHT22;11650;48.106;-1.696;2024-03-22T08:32:18;10.80;99.90
22968;DHT22;11650;48.106;-1.696;2024-03-22T08:34:45;11.00;99.90
22968;DHT22;11650;48.106;-1.696;2024-03-22T08:37:10;11.10;99.90
22968;DHT22;11650;48.106;-1.696;2024-03-22T08:39:36;11.20;99.90
22968;DHT22;11650;48.106;-1.696;2024-03-22T08:42:02;11.30;99.90
22968;DHT22;11650;48.106;-1.696;2024-03-22T08:44:30;11.40;99.90
22968;DHT22;11650;48.106;-1.696;2024-03-22T08:46:56;11.30;99.90
22968;DHT22;11650;48.106;-1.696;2024-03-22T08:49:21;11.30;99.90
22968;DHT22;11650;48.106;-1.696;2024-03-22T08:51:49;11.20;99.90
22968;DHT22;11650;48.106;-1.696;2024-03-22T08:54:14;11.30;99.90
22968;DHT22;11650;48.106;-1.696;2024-03-22T08:56:40;11.50;99.90
22968;DHT22;11650;48.106;-1.696;2024-03-22T08:59:06;11.60;99.90
22968;DHT22;11650;48.106;-1.696;2024-03-22T09:01:31;11.70;99.90
22968;DHT22;11650;48.106;-1.696;2024-03-22T09:03:58;12.00;99.90
22968;DHT22;11650;48.106;-1.696;2024-03-22T09:06:23;12.30;99.90
22968;DHT22;11650;48.106;-1.696;2024-03-22T09:08:49;12.50;99.90
22968;DHT22;11650;48.106;-1.696;2024-03-22T09:11:14;12.30;99.90
22968;DHT22;11650;48.106;-1.696;2024-03-22T09:13:40;12.20;99.90
22968;DHT22;11650;48.106;-1.696;2024-03-22T09:16:06;12.00;99.90
22968;DHT22;11650;48.106;-1.696;2024-03-22T09:18:31;12.00;99.90
22968;DHT22;11650;48.106;-1.696;2024-03-22T09:20:58;12.00;99.90
22968;DHT22;11650;48.106;-1.696;2024-03-22T09:23:23;11.80;99.90
22968;DHT22;11650;48.106;-1.696;2024-03-22T09:25:49;11.80;99.90
22968;DHT22;11650;48.106;-1.696;2024-03-22T09:28:15;12.00;99.90
22968;DHT22;11650;48.106;-1.696;2024-03-22T09:30:41;11.90;99.90
22968;DHT22;11650;48.106;-1.696;2024-03-22T09:33:08;12.00;99.90
22968;DHT22;11650;48.106;-1.696;2024-03-22T09:35:34;12.00;99.90
22968;DHT22;11650;48.106;-1.696;2024-03-22T09:38:00;11.90;99.90
22968;DHT22;11650;48.106;-1.696;2024-03-22T09:40:25;11.80;99.90
22968;DHT22;11650;48.106;-1.696;2024-03-22T09:42:53;11.90;99.90
22968;DHT22;11650;48.106;-1.696;2024-03-22T09:45:19;12.00;99.90
22968;DHT22;11650;48.106;-1.696;2024-03-22T09:47:48;12.10;99.90
22968;DHT22;11650;48.106;-1.696;2024-03-22T09:50:14;12.00;99.90
22968;DHT22;11650;48.106;-1.696;2024-03-22T09:52:41;11.80;99.90
22968;DHT22;11650;48.106;-1.696;2024-03-22T09:55:08;11.90;99.90
22968;DHT22;11650;48.106;-1.696;2024-03-22T09:57:38;12.10;99.90
22968;DHT22;11650;48.106;-1.696;2024-03-22T10:00:08;12.10;99.90
22968;DHT22;11650;48.106;-1.696;2024-03-22T10:02:34;12.00;99.90
22968;DHT22;11650;48.106;-1.696;2024-03-22T10:05:00;12.10;99.90
22968;DHT22;11650;48.106;-1.696;2024-03-22T10:07:28;12.10;99.90
22968;DHT22;11650;48.106;-1.696;2024-03-22T10:09:57;12.10;99.90
22968;DHT22;11650;48.106;-1.696;2024-03-22T10:12:23;12.40;99.90
22968;DHT22;11650;48.106;-1.696;2024-03-22T10:14:53;12.50;99.90
22968;DHT22;11650;48.106;-1.696;2024-03-22T10:17:19;12.40;99.90
22968;DHT22;11650;48.106;-1.696;2024-03-22T10:19:45;12.60;99.90
22968;DHT22;11650;48.106;-1.696;2024-03-22T10:22:11;12.60;99.90
22968;DHT22;11650;48.106;-1.696;2024-03-22T10:24:36;13.20;99.90
22968;DHT22;11650;48.106;-1.696;2024-03-22T10:27:02;13.20;99.90
22968;DHT22;11650;48.106;-1.696;2024-03-22T10:29:28;13.40;99.90
22968;DHT22;11650;48.106;-1.696;2024-03-22T10:31:55;13.30;99.90
22968;DHT22;11650;48.106;-1.696;2024-03-22T10:34:21;13.40;99.90
22968;DHT22;11650;48.106;-1.696;2024-03-22T10:36:48;13.70;99.90
22968;DHT22;11650;48.106;-1.696;2024-03-22T10:39:16;13.80;99.90
22968;DHT22;11650;48.106;-1.696;2024-03-22T10:41:45;13.80;99.90
22968;DHT22;11650;48.106;-1.696;2024-03-22T10:44:11;14.10;99.90
22968;DHT22;11650;48.106;-1.696;2024-03-22T10:46:38;14.10;99.90
22968;DHT22;11650;48.106;-1.696;2024-03-22T10:49:06;14.30;99.90
22968;DHT22;11650;48.106;-1.696;2024-03-22T10:51:34;14.50;99.90
22968;DHT22;11650;48.106;-1.696;2024-03-22T10:54:02;14.50;99.90
22968;DHT22;11650;48.106;-1.696;2024-03-22T10:56:29;14.90;99.90
22968;DHT22;11650;48.106;-1.696;2024-03-22T10:58:55;14.90;99.90
22968;DHT22;11650;48.106;-1.696;2024-03-22T11:01:25;14.60;99.90
22968;DHT22;11650;48.106;-1.696;2024-03-22T11:04:02;14.50;99.90
22968;DHT22;11650;48.106;-1.696;2024-03-22T11:06:30;14.00;99.90
22968;DHT22;11650;48.106;-1.696;2024-03-22T11:09:00;14.00;99.90
22968;DHT22;11650;48.106;-1.696;2024-03-22T11:11:28;14.00;99.90
22968;DHT22;11650;48.106;-1.696;2024-03-22T11:13:54;14.20;99.90
22968;DHT22;11650;48.106;-1.696;2024-03-22T11:16:21;14.30;99.90
22968;DHT22;11650;48.106;-1.696;2024-03-22T11:18:47;14.50;99.90
22968;DHT22;11650;48.106;-1.696;2024-03-22T11:21:14;14.40;99.90
22968;DHT22;11650;48.106;-1.696;2024-03-22T11:23:44;14.30;99.90
22968;DHT22;11650;48.106;-1.696;2024-03-22T11:26:11;14.30;99.90
22968;DHT22;11650;48.106;-1.696;2024-03-22T11:28:38;14.40;99.90
22968;DHT22;11650;48.106;-1.696;2024-03-22T11:31:03;14.30;99.90
22968;DHT22;11650;48.106;-1.696;2024-03-22T11:33:30;14.40;99.90
22968;DHT22;11650;48.106;-1.696;2024-03-22T11:36:01;14.50;99.90
22968;DHT22;11650;48.106;-1.696;2024-03-22T11:38:27;14.60;99.90
22968;DHT22;11650;48.106;-1.696;2024-03-22T11:40:55;14.60;99.90
22968;DHT22;11650;48.106;-1.696;2024-03-22T11:43:21;14.60;99.90
22968;DHT22;11650;48.106;-1.696;2024-03-22T11:45:47;14.60;99.90
22968;DHT22;11650;48.106;-1.696;2024-03-22T11:48:13;15.10;99.90
22968;DHT22;11650;48.106;-1.696;2024-03-22T11:50:38;15.20;99.90
22968;DHT22;11650;48.106;-1.696;2024-03-22T11:53:08;15.30;99.90
22968;DHT22;11650;48.106;-1.696;2024-03-22T11:55:35;15.10;99.90
22968;DHT22;11650;48.106;-1.696;2024-03-22T11:58:01;15.30;99.90
22968;DHT22;11650;48.106;-1.696;2024-03-22T12:00:27;15.60;99.90
22968;DHT22;11650;48.106;-1.696;2024-03-22T12:02:53;15.90;99.90
22968;DHT22;11650;48.106;-1.696;2024-03-22T12:05:20;16.00;99.90
22968;DHT22;11650;48.106;-1.696;2024-03-22T12:07:46;16.00;99.90
22968;DHT22;11650;48.106;-1.696;2024-03-22T12:10:12;15.90;99.90
22968;DHT22;11650;48.106;-1.696;2024-03-22T12:12:38;15.80;99.90
22968;DHT22;11650;48.106;-1.696;2024-03-22T12:15:04;15.80;99.90
22968;DHT22;11650;48.106;-1.696;2024-03-22T12:17:30;16.00;99.90
22968;DHT22;11650;48.106;-1.696;2024-03-22T12:19:56;15.70;99.90
22968;DHT22;11650;48.106;-1.696;2024-03-22T12:22:22;16.20;99.90
22968;DHT22;11650;48.106;-1.696;2024-03-22T12:24:48;16.50;99.90
22968;DHT22;11650;48.106;-1.696;2024-03-22T12:27:14;16.30;99.90
22968;DHT22;11650;48.106;-1.696;2024-03-22T12:29:39;16.00;99.90
22968;DHT22;11650;48.106;-1.696;2024-03-22T12:32:05;16.10;99.90
22968;DHT22;11650;48.106;-1.696;2024-03-22T12:34:32;16.40;99.90
22968;DHT22;11650;48.106;-1.696;2024-03-22T12:36:59;16.50;99.90
22968;DHT22;11650;48.106;-1.696;2024-03-22T12:39:25;16.20;99.90
22968;DHT22;11650;48.106;-1.696;2024-03-22T12:41:51;16.20;99.90
22968;DHT22;11650;48.106;-1.696;2024-03-22T12:44:16;16.50;99.90
22968;DHT22;11650;48.106;-1.696;2024-03-22T12:46:42;16.80;99.90
22968;DHT22;11650;48.106;-1.696;2024-03-22T12:49:10;16.60;99.90
22968;DHT22;11650;48.106;-1.696;2024-03-22T12:51:36;16.90;99.90
22968;DHT22;11650;48.106;-1.696;2024-03-22T12:54:02;16.90;99.90
22968;DHT22;11650;48.106;-1.696;2024-03-22T12:56:28;17.00;99.90
22968;DHT22;11650;48.106;-1.696;2024-03-22T12:58:54;17.40;99.90
22968;DHT22;11650;48.106;-1.696;2024-03-22T13:01:20;17.50;99.90
22968;DHT22;11650;48.106;-1.696;2024-03-22T13:03:46;17.90;99.90
22968;DHT22;11650;48.106;-1.696;2024-03-22T13:06:12;18.40;99.90
22968;DHT22;11650;48.106;-1.696;2024-03-22T13:08:38;19.70;99.90
22968;DHT22;11650;48.106;-1.696;2024-03-22T13:11:04;19.80;99.90
22968;DHT22;11650;48.106;-1.696;2024-03-22T13:13:30;19.50;99.90
22968;DHT22;11650;48.106;-1.696;2024-03-22T13:15:58;18.90;99.90
22968;DHT22;11650;48.106;-1.696;2024-03-22T13:18:24;19.50;99.90
22968;DHT22;11650;48.106;-1.696;2024-03-22T13:20:50;19.70;99.90
22968;DHT22;11650;48.106;-1.696;2024-03-22T13:23:15;20.10;99.90
22968;DHT22;11650;48.106;-1.696;2024-03-22T13:25:41;20.20;99.90
22968;DHT22;11650;48.106;-1.696;2024-03-22T13:28:06;20.50;99.90
22968;DHT22;11650;48.106;-1.696;2024-03-22T13:30:32;19.80;99.90
22968;DHT22;11650;48.106;-1.696;2024-03-22T13:33:00;20.70;99.90
22968;DHT22;11650;48.106;-1.696;2024-03-22T13:35:26;20.60;99.90
22968;DHT22;11650;48.106;-1.696;2024-03-22T13:37:52;21.10;99.90
22968;DHT22;11650;48.106;-1.696;2024-03-22T13:40:17;22.00;99.90
22968;DHT22;11650;48.106;-1.696;2024-03-22T13:42:43;21.80;99.90
22968;DHT22;11650;48.106;-1.696;2024-03-22T13:45:09;22.50;99.90
22968;DHT22;11650;48.106;-1.696;2024-03-22T13:47:34;22.80;99.90
22968;DHT22;11650;48.106;-1.696;2024-03-22T13:50:04;22.50;99.90
22968;DHT22;11650;48.106;-1.696;2024-03-22T13:52:29;22.10;99.90
22968;DHT22;11650;48.106;-1.696;2024-03-22T13:54:55;22.10;99.90
22968;DHT22;11650;48.106;-1.696;2024-03-22T13:57:21;22.10;99.90
22968;DHT22;11650;48.106;-1.696;2024-03-22T13:59:47;22.70;99.90
22968;DHT22;11650;48.106;-1.696;2024-03-22T14:02:12;22.30;99.90
22968;DHT22;11650;48.106;-1.696;2024-03-22T14:04:38;22.30;99.90
22968;DHT22;11650;48.106;-1.696;2024-03-22T14:07:04;22.60;99.90
22968;DHT22;11650;48.106;-1.696;2024-03-22T14:09:34;23.10;99.90
22968;DHT22;11650;48.106;-1.696;2024-03-22T14:11:59;24.20;99.90
22968;DHT22;11650;48.106;-1.696;2024-03-22T14:14:26;24.00;99.90
22968;DHT22;11650;48.106;-1.696;2024-03-22T14:16:52;23.20;99.90
22968;DHT22;11650;48.106;-1.696;2024-03-22T14:19:18;23.20;99.90
22968;DHT22;11650;48.106;-1.696;2024-03-22T14:21:45;23.40;99.90
22968;DHT22;11650;48.106;-1.696;2024-03-22T14:24:12;23.70;99.90
22968;DHT22;11650;48.106;-1.696;2024-03-22T14:26:38;23.70;99.90
22968;DHT22;11650;48.106;-1.696;2024-03-22T14:29:13;23.70;99.90
22968;DHT22;11650;48.106;-1.696;2024-03-22T14:31:39;24.20;99.90
22968;DHT22;11650;48.106;-1.696;2024-03-22T14:34:08;24.80;99.90
22968;DHT22;11650;48.106;-1.696;2024-03-22T14:36:34;24.00;99.90
22968;DHT22;11650;48.106;-1.696;2024-03-22T14:39:01;24.30;99.90
22968;DHT22;11650;48.106;-1.696;2024-03-22T14:41:31;23.70;99.90
22968;DHT22;11650;48.106;-1.696;2024-03-22T14:43:56;23.00;99.90
22968;DHT22;11650;48.106;-1.696;2024-03-22T14:46:22;23.40;99.90
22968;DHT22;11650;48.106;-1.696;2024-03-22T14:48:50;24.00;99.90
22968;DHT22;11650;48.106;-1.696;2024-03-22T14:51:16;25.40;99.90
22968;DHT22;11650;48.106;-1.696;2024-03-22T14:53:41;25.30;99.90
22968;DHT22;11650;48.106;-1.696;2024-03-22T14:56:07;26.10;99.90
22968;DHT22;11650;48.106;-1.696;2024-03-22T14:58:37;24.80;99.90
22968;DHT22;11650;48.106;-1.696;2024-03-22T15:01:04;22.80;99.90
22968;DHT22;11650;48.106;-1.696;2024-03-22T15:03:31;21.80;99.90
22968;DHT22;11650;48.106;-1.696;2024-03-22T15:05:58;20.90;99.90
22968;DHT22;11650;48.106;-1.696;2024-03-22T15:08:29;20.30;99.90
22968;DHT22;11650;48.106;-1.696;2024-03-22T15:10:55;20.00;99.90